sensor_id;sensor_type;location;lat;lon;timestamp;temperature;humidity
54930;DHT22;40833;53.238;6.576;2023-06-22T00:07:05;18.20;99.90
54930;DHT22;40833;53.238;6.576;2023-06-22T00:09:32;18.30;99.90
54930;DHT22;40833;53.238;6.576;2023-06-22T00:11:58;18.30;99.90
54930;DHT22;40833;53.238;6.576;2023-06-22T00:14:24;18.20;99.90
54930;DHT22;40833;53.238;6.576;2023-06-22T00:16:50;18.20;99.90
54930;DHT22;40833;53.238;6.576;2023-06-22T00:19:23;18.20;99.90
54930;DHT22;40833;53.238;6.576;2023-06-22T00:21:50;18.20;99.90
54930;DHT22;40833;53.238;6.576;2023-06-22T00:24:22;18.10;99.90
54930;DHT22;40833;53.238;6.576;2023-06-22T00:26:48;18.10;99.90
54930;DHT22;40833;53.238;6.576;2023-06-22T00:29:14;18.00;99.90
54930;DHT22;40833;53.238;6.576;2023-06-22T00:31:40;18.00;99.90
54930;DHT22;40833;53.238;6.576;2023-06-22T00:34:06;17.90;99.90
54930;DHT22;40833;53.238;6.576;2023-06-22T00:36:34;17.90;99.90
54930;DHT22;40833;53.238;6.576;2023-06-22T00:39:00;17.90;99.90
54930;DHT22;40833;53.238;6.576;2023-06-22T00:41:26;17.90;99.90
54930;DHT22;40833;53.238;6.576;2023-06-22T00:43:54;17.80;99.90
54930;DHT22;40833;53.238;6.576;2023-06-22T00:46:21;17.70;99.90
54930;DHT22;40833;53.238;6.576;2023-06-22T00:56:06;17.60;99.90
54930;DHT22;40833;53.238;6.576;2023-06-22T00:58:36;17.60;99.90
54930;DHT22;40833;53.238;6.576;2023-06-22T01:01:01;17.60;99.90
54930;DHT22;40833;53.238;6.576;2023-06-22T01:03:28;17.60;99.90
54930;DHT22;40833;53.238;6.576;2023-06-22T01:06:00;17.50;99.90
54930;DHT22;40833;53.238;6.576;2023-06-22T01:08:33;17.50;99.90
54930;DHT22;40833;53.238;6.576;2023-06-22T01:11:10;17.10;99.90
54930;DHT22;40833;53.238;6.576;2023-06-22T01:13:57;17.00;99.90
54930;DHT22;40833;53.238;6.576;2023-06-22T01:16:33;17.00;99.90
54930;DHT22;40833;53.238;6.576;2023-06-22T01:19:05;17.20;99.90
54930;DHT22;40833;53.238;6.576;2023-06-22T01:21:34;17.20;99.90
54930;DHT22;40833;53.238;6.576;2023-06-22T01:24:30;16.90;99.90
54930;DHT22;40833;53.238;6.576;2023-06-22T01:29:51;16.90;99.90
54930;DHT22;40833;53.238;6.576;2023-06-22T01:32:18;16.90;99.90
54930;DHT22;40833;53.238;6.576;2023-06-22T01:34:45;16.80;99.90
54930;DHT22;40833;53.238;6.576;2023-06-22T01:37:12;16.80;99.90
54930;DHT22;40833;53.238;6.576;2023-06-22T01:39:39;16.70;99.90
54930;DHT22;40833;53.238;6.576;2023-06-22T01:42:05;16.70;99.90
54930;DHT22;40833;53.238;6.576;2023-06-22T01:44:31;16.70;99.90
54930;DHT22;40833;53.238;6.576;2023-06-22T01:46:58;16.70;99.90
54930;DHT22;40833;53.238;6.576;2023-06-22T01:49:24;16.60;99.90
54930;DHT22;40833;53.238;6.576;2023-06-22T01:51:50;16.60;99.90
54930;DHT22;40833;53.238;6.576;2023-06-22T01:54:15;16.60;99.90
54930;DHT22;40833;53.238;6.576;2023-06-22T01:56:41;16.50;99.90
54930;DHT22;40833;53.238;6.576;2023-06-22T01:59:25;16.50;99.90
54930;DHT22;40833;53.238;6.576;2023-06-22T02:02:04;16.50;99.90
54930;DHT22;40833;53.238;6.576;2023-06-22T02:04:41;16.50;99.90
54930;DHT22;40833;53.238;6.576;2023-06-22T02:07:13;16.40;99.90
54930;DHT22;40833;53.238;6.576;2023-06-22T02:09:42;16.50;99.90
54930;DHT22;40833;53.238;6.576;2023-06-22T02:12:11;16.50;99.90
54930;DHT22;40833;53.238;6.576;2023-06-22T02:14:37;16.50;99.90
54930;DHT22;40833;53.238;6.576;2023-06-22T02:17:03;16.50;99.90
54930;DHT22;40833;53.238;6.576;2023-06-22T02:23:13;16.40;99.90
54930;DHT22;40833;53.238;6.576;2023-06-22T02:25:39;16.40;99.90
54930;DHT22;40833;53.238;6.576;2023-06-22T02:30:32;16.30;99.90
54930;DHT22;40833;53.238;6.576;2023-06-22T02:35:30;16.30;99.90
54930;DHT22;40833;53.238;6.576;2023-06-22T02:38:01;16.30;99.90
54930;DHT22;40833;53.238;6.576;2023-06-22T02:40:28;16.70;99.90
54930;DHT22;40833;53.238;6.576;2023-06-22T02:42:55;16.40;99.90
54930;DHT22;40833;53.238;6.576;2023-06-22T02:45:20;16.40;99.90
54930;DHT22;40833;53.238;6.576;2023-06-22T02:47:46;16.20;99.90
54930;DHT22;40833;53.238;6.576;2023-06-22T02:50:13;16.30;99.90
54930;DHT22;40833;53.238;6.576;2023-06-22T02:52:39;16.30;99.90
54930;DHT22;40833;53.238;6.576;2023-06-22T02:55:06;16.30;99.90
54930;DHT22;40833;53.238;6.576;2023-06-22T02:57:32;16.30;99.90
54930;DHT22;40833;53.238;6.576;2023-06-22T02:59:59;16.40;99.90
54930;DHT22;40833;53.238;6.576;2023-06-22T03:04:52;16.20;99.90
54930;DHT22;40833;53.238;6.576;2023-06-22T03:07:20;16.10;99.90
54930;DHT22;40833;53.238;6.576;2023-06-22T03:09:46;16.10;99.90
54930;DHT22;40833;53.238;6.576;2023-06-22T03:12:11;16.00;99.90
54930;DHT22;40833;53.238;6.576;2023-06-22T03:14:37;16.00;99.90
54930;DHT22;40833;53.238;6.576;2023-06-22T03:17:04;15.90;99.90
54930;DHT22;40833;53.238;6.576;2023-06-22T03:21:59;15.80;99.90
54930;DHT22;40833;53.238;6.576;2023-06-22T03:29:16;15.70;99.90
54930;DHT22;40833;53.238;6.576;2023-06-22T03:31:42;15.70;99.90
54930;DHT22;40833;53.238;6.576;2023-06-22T03:34:08;15.70;99.90
54930;DHT22;40833;53.238;6.576;2023-06-22T03:36:33;15.70;99.90
54930;DHT22;40833;53.238;6.576;2023-06-22T03:38:59;15.70;99.90
54930;DHT22;40833;53.238;6.576;2023-06-22T03:41:25;15.70;99.90
54930;DHT22;40833;53.238;6.576;2023-06-22T03:43:50;15.70;99.90
54930;DHT22;40833;53.238;6.576;2023-06-22T03:48:42;15.70;99.90
54930;DHT22;40833;53.238;6.576;2023-06-22T03:51:08;15.70;99.90
54930;DHT22;40833;53.238;6.576;2023-06-22T03:53:33;15.70;99.90
54930;DHT22;40833;53.238;6.576;2023-06-22T03:55:59;15.70;99.90
54930;DHT22;40833;53.238;6.576;2023-06-22T03:58:25;15.70;99.90
54930;DHT22;40833;53.238;6.576;2023-06-22T04:00:52;15.70;99.90
54930;DHT22;40833;53.238;6.576;2023-06-22T04:03:18;15.70;99.90
54930;DHT22;40833;53.238;6.576;2023-06-22T04:05:44;15.80;99.90
54930;DHT22;40833;53.238;6.576;2023-06-22T04:08:10;15.80;99.90
54930;DHT22;40833;53.238;6.576;2023-06-22T04:10:36;15.80;99.90
54930;DHT22;40833;53.238;6.576;2023-06-22T04:13:02;15.90;99.90
54930;DHT22;40833;53.238;6.576;2023-06-22T04:15:27;15.90;99.90
54930;DHT22;40833;53.238;6.576;2023-06-22T04:17:54;16.00;99.90
54930;DHT22;40833;53.238;6.576;2023-06-22T04:20:20;16.00;99.90
54930;DHT22;40833;53.238;6.576;2023-06-22T04:22:45;16.00;99.90
54930;DHT22;40833;53.238;6.576;2023-06-22T04:25:11;16.00;99.90
54930;DHT22;40833;53.238;6.576;2023-06-22T04:27:37;16.10;99.90
54930;DHT22;40833;53.238;6.576;2023-06-22T04:30:06;16.10;99.90
54930;DHT22;40833;53.238;6.576;2023-06-22T04:32:33;16.20;99.90
54930;DHT22;40833;53.238;6.576;2023-06-22T04:34:59;16.20;99.90
54930;DHT22;40833;53.238;6.576;2023-06-22T04:37:27;16.30;99.90
54930;DHT22;40833;53.238;6.576;2023-06-22T04:39:53;16.30;99.90
54930;DHT22;40833;53.238;6.576;2023-06-22T04:42:19;16.30;99.90
54930;DHT22;40833;53.238;6.576;2023-06-22T04:49:37;16.50;99.90
54930;DHT22;40833;53.238;6.576;2023-06-22T04:52:05;16.90;99.90
54930;DHT22;40833;53.238;6.576;2023-06-22T04:56:59;16.80;99.90
54930;DHT22;40833;53.238;6.576;2023-06-22T04:59:27;16.90;99.90
54930;DHT22;40833;53.238;6.576;2023-06-22T05:01:59;17.10;99.90
54930;DHT22;40833;53.238;6.576;2023-06-22T05:04:26;16.60;99.90
54930;DHT22;40833;53.238;6.576;2023-06-22T05:16:38;17.40;99.90
54930;DHT22;40833;53.238;6.576;2023-06-22T05:23:57;17.60;99.90
54930;DHT22;40833;53.238;6.576;2023-06-22T05:26:26;17.50;99.90
54930;DHT22;40833;53.238;6.576;2023-06-22T05:28:52;17.30;99.90
54930;DHT22;40833;53.238;6.576;2023-06-22T05:31:19;17.60;99.90
54930;DHT22;40833;53.238;6.576;2023-06-22T05:33:51;17.80;99.90
54930;DHT22;40833;53.238;6.576;2023-06-22T05:46:04;17.80;99.90
54930;DHT22;40833;53.238;6.576;2023-06-22T05:50:56;18.20;99.90
54930;DHT22;40833;53.238;6.576;2023-06-22T05:53:22;18.60;99.90
54930;DHT22;40833;53.238;6.576;2023-06-22T05:55:48;18.50;99.90
54930;DHT22;40833;53.238;6.576;2023-06-22T05:58:14;18.20;99.90
54930;DHT22;40833;53.238;6.576;2023-06-22T06:00:40;18.60;99.90
54930;DHT22;40833;53.238;6.576;2023-06-22T06:03:07;18.40;99.90
54930;DHT22;40833;53.238;6.576;2023-06-22T06:05:34;18.80;99.90
54930;DHT22;40833;53.238;6.576;2023-06-22T06:08:01;18.70;99.90
54930;DHT22;40833;53.238;6.576;2023-06-22T06:17:51;18.80;99.90
54930;DHT22;40833;53.238;6.576;2023-06-22T06:20:25;18.90;99.90
54930;DHT22;40833;53.238;6.576;2023-06-22T06:22:53;18.90;99.90
54930;DHT22;40833;53.238;6.576;2023-06-22T06:25:19;19.00;99.90
54930;DHT22;40833;53.238;6.576;2023-06-22T06:27:48;19.30;99.90
54930;DHT22;40833;53.238;6.576;2023-06-22T06:30:14;19.30;99.90
54930;DHT22;40833;53.238;6.576;2023-06-22T06:32:41;19.40;99.90
54930;DHT22;40833;53.238;6.576;2023-06-22T06:35:09;19.40;99.90
54930;DHT22;40833;53.238;6.576;2023-06-22T06:37:39;19.60;99.90
54930;DHT22;40833;53.238;6.576;2023-06-22T06:40:09;19.70;99.90
54930;DHT22;40833;53.238;6.576;2023-06-22T06:42:37;19.60;99.90
54930;DHT22;40833;53.238;6.576;2023-06-22T06:45:05;19.80;99.90
54930;DHT22;40833;53.238;6.576;2023-06-22T06:47:31;19.90;99.90
54930;DHT22;40833;53.238;6.576;2023-06-22T06:49:56;20.00;99.90
54930;DHT22;40833;53.238;6.576;2023-06-22T06:52:22;20.10;99.90
54930;DHT22;40833;53.238;6.576;2023-06-22T06:54:48;20.30;99.90
54930;DHT22;40833;53.238;6.576;2023-06-22T06:57:14;20.40;99.90
54930;DHT22;40833;53.238;6.576;2023-06-22T06:59:40;20.50;99.90
54930;DHT22;40833;53.238;6.576;2023-06-22T07:02:06;20.60;99.90
54930;DHT22;40833;53.238;6.576;2023-06-22T07:04:33;20.70;99.90
54930;DHT22;40833;53.238;6.576;2023-06-22T07:07:00;20.90;99.90
54930;DHT22;40833;53.238;6.576;2023-06-22T07:09:26;20.80;99.90
54930;DHT22;40833;53.238;6.576;2023-06-22T07:14:18;21.00;99.90
54930;DHT22;40833;53.238;6.576;2023-06-22T07:16:43;21.10;99.90
54930;DHT22;40833;53.238;6.576;2023-06-22T07:19:11;21.20;99.90
54930;DHT22;40833;53.238;6.576;2023-06-22T07:21:37;21.20;99.90
54930;DHT22;40833;53.238;6.576;2023-06-22T07:24:04;21.30;99.90
54930;DHT22;40833;53.238;6.576;2023-06-22T07:26:31;21.30;99.90
54930;DHT22;40833;53.238;6.576;2023-06-22T07:28:57;21.40;99.90
54930;DHT22;40833;53.238;6.576;2023-06-22T07:31:24;21.50;99.90
54930;DHT22;40833;53.238;6.576;2023-06-22T07:36:17;21.50;99.90
54930;DHT22;40833;53.238;6.576;2023-06-22T07:38:43;21.50;99.90
54930;DHT22;40833;53.238;6.576;2023-06-22T07:41:09;21.50;99.90
54930;DHT22;40833;53.238;6.576;2023-06-22T07:46:05;21.60;99.90
54930;DHT22;40833;53.238;6.576;2023-06-22T07:48:31;22.50;99.90
54930;DHT22;40833;53.238;6.576;2023-06-22T07:53:23;21.60;99.90
54930;DHT22;40833;53.238;6.576;2023-06-22T07:55:50;21.70;99.90
54930;DHT22;40833;53.238;6.576;2023-06-22T07:58:15;21.70;99.90
54930;DHT22;40833;53.238;6.576;2023-06-22T08:00:41;21.70;99.90
54930;DHT22;40833;53.238;6.576;2023-06-22T08:03:07;21.80;99.90
54930;DHT22;40833;53.238;6.576;2023-06-22T08:05:33;21.90;99.90
54930;DHT22;40833;53.238;6.576;2023-06-22T08:07:58;22.00;99.90
54930;DHT22;40833;53.238;6.576;2023-06-22T08:10:24;22.10;99.90
54930;DHT22;40833;53.238;6.576;2023-06-22T08:12:51;22.20;99.90
54930;DHT22;40833;53.238;6.576;2023-06-22T08:15:18;22.20;99.90
54930;DHT22;40833;53.238;6.576;2023-06-22T08:17:44;22.30;99.90
54930;DHT22;40833;53.238;6.576;2023-06-22T08:20:11;22.40;99.90
54930;DHT22;40833;53.238;6.576;2023-06-22T08:25:04;22.50;99.90
54930;DHT22;40833;53.238;6.576;2023-06-22T08:29:47;22.40;99.90
54930;DHT22;40833;53.238;6.576;2023-06-22T08:32:12;22.60;99.90
54930;DHT22;40833;53.238;6.576;2023-06-22T08:34:38;22.60;99.90
54930;DHT22;40833;53.238;6.576;2023-06-22T08:37:08;22.60;99.90
54930;DHT22;40833;53.238;6.576;2023-06-22T08:39:34;22.70;99.90
54930;DHT22;40833;53.238;6.576;2023-06-22T08:42:00;22.70;99.90
54930;DHT22;40833;53.238;6.576;2023-06-22T09:00:18;23.30;99.90
54930;DHT22;40833;53.238;6.576;2023-06-22T09:02:46;23.40;99.90
54930;DHT22;40833;53.238;6.576;2023-06-22T09:05:12;23.50;99.90
54930;DHT22;40833;53.238;6.576;2023-06-22T09:10:16;23.50;99.90
54930;DHT22;40833;53.238;6.576;2023-06-22T09:12:42;23.60;99.90
54930;DHT22;40833;53.238;6.576;2023-06-22T09:15:09;23.60;99.90
54930;DHT22;40833;53.238;6.576;2023-06-22T09:27:04;23.90;99.90
54930;DHT22;40833;53.238;6.576;2023-06-22T09:29:29;24.00;99.90
54930;DHT22;40833;53.238;6.576;2023-06-22T09:33:40;24.10;99.90
54930;DHT22;40833;53.238;6.576;2023-06-22T09:45:13;24.20;99.90
54930;DHT22;40833;53.238;6.576;2023-06-22T09:47:38;24.20;99.90
54930;DHT22;40833;53.238;6.576;2023-06-22T09:50:05;24.20;99.90
54930;DHT22;40833;53.238;6.576;2023-06-22T09:57:23;24.60;99.90
54930;DHT22;40833;53.238;6.576;2023-06-22T10:30:40;25.10;99.90
54930;DHT22;40833;53.238;6.576;2023-06-22T10:33:12;25.20;99.90
54930;DHT22;40833;53.238;6.576;2023-06-22T10:38:04;25.10;99.90
54930;DHT22;40833;53.238;6.576;2023-06-22T10:40:30;25.10;99.90
54930;DHT22;40833;53.238;6.576;2023-06-22T10:45:22;25.30;99.90
54930;DHT22;40833;53.238;6.576;2023-06-22T10:52:40;25.40;99.90
54930;DHT22;40833;53.238;6.576;2023-06-22T10:57:02;25.80;99.90
54930;DHT22;40833;53.238;6.576;2023-06-22T11:05:53;26.20;99.90
54930;DHT22;40833;53.238;6.576;2023-06-22T11:10:44;26.70;99.90
54930;DHT22;40833;53.238;6.576;2023-06-22T11:13:10;26.70;99.90
54930;DHT22;40833;53.238;6.576;2023-06-22T11:15:36;26.80;99.90
54930;DHT22;40833;53.238;6.576;2023-06-22T11:18:02;27.00;99.90
54930;DHT22;40833;53.238;6.576;2023-06-22T11:20:27;27.10;99.90
54930;DHT22;40833;53.238;6.576;2023-06-22T11:28:03;26.90;99.90
54930;DHT22;40833;53.238;6.576;2023-06-22T11:30:30;27.00;99.90
54930;DHT22;40833;53.238;6.576;2023-06-22T11:32:59;27.00;99.90
54930;DHT22;40833;53.238;6.576;2023-06-22T11:35:25;27.10;99.90
54930;DHT22;40833;53.238;6.576;2023-06-22T11:37:51;26.30;99.90
54930;DHT22;40833;53.238;6.576;2023-06-22T11:40:17;26.90;99.90
54930;DHT22;40833;53.238;6.576;2023-06-22T11:42:43;26.90;99.90
54930;DHT22;40833;53.238;6.576;2023-06-22T11:45:09;27.00;99.90
54930;DHT22;40833;53.238;6.576;2023-06-22T11:50:02;27.20;99.90
54930;DHT22;40833;53.238;6.576;2023-06-22T11:59:22;27.80;99.90
54930;DHT22;40833;53.238;6.576;2023-06-22T12:01:47;27.50;99.90
54930;DHT22;40833;53.238;6.576;2023-06-22T12:04:14;27.40;99.90
54930;DHT22;40833;53.238;6.576;2023-06-22T12:06:40;27.40;99.90
54930;DHT22;40833;53.238;6.576;2023-06-22T12:09:08;27.30;99.90
54930;DHT22;40833;53.238;6.576;2023-06-22T12:11:33;27.30;99.90
54930;DHT22;40833;53.238;6.576;2023-06-22T12:24:36;27.30;99.90
54930;DHT22;40833;53.238;6.576;2023-06-22T12:27:02;27.30;99.90
54930;DHT22;40833;53.238;6.576;2023-06-22T12:29:28;27.40;99.90
54930;DHT22;40833;53.238;6.576;2023-06-22T12:31:54;27.40;99.90
54930;DHT22;40833;53.238;6.576;2023-06-22T12:34:20;27.20;99.90
54930;DHT22;40833;53.238;6.576;2023-06-22T12:36:45;27.30;99.90
54930;DHT22;40833;53.238;6.576;2023-06-22T12:39:13;27.40;99.90
54930;DHT22;40833;53.238;6.576;2023-06-22T12:41:39;27.30;99.90
54930;DHT22;40833;53.238;6.576;2023-06-22T12:44:05;27.30;99.90
54930;DHT22;40833;53.238;6.576;2023-06-22T12:46:30;27.20;99.90
54930;DHT22;40833;53.238;6.576;2023-06-22T12:49:03;27.20;99.90
54930;DHT22;40833;53.238;6.576;2023-06-22T12:51:30;27.20;99.90
54930;DHT22;40833;53.238;6.576;2023-06-22T12:53:56;27.30;99.90
54930;DHT22;40833;53.238;6.576;2023-06-22T12:56:21;27.20;99.90
54930;DHT22;40833;53.238;6.576;2023-06-22T12:58:47;27.20;99.90
54930;DHT22;40833;53.238;6.576;2023-06-22T13:04:34;27.20;99.90
54930;DHT22;40833;53.238;6.576;2023-06-22T13:07:00;27.20;99.90
54930;DHT22;40833;53.238;6.576;2023-06-22T13:09:25;27.20;99.90
54930;DHT22;40833;53.238;6.576;2023-06-22T13:11:51;27.10;99.90
54930;DHT22;40833;53.238;6.576;2023-06-22T13:14:18;27.00;99.90
54930;DHT22;40833;53.238;6.576;2023-06-22T13:16:44;27.00;99.90
54930;DHT22;40833;53.238;6.576;2023-06-22T13:19:09;26.90;99.90
54930;DHT22;40833;53.238;6.576;2023-06-22T13:21:35;26.80;99.90
54930;DHT22;40833;53.238;6.576;2023-06-22T13:26:27;26.70;99.90
54930;DHT22;40833;53.238;6.576;2023-06-22T13:28:54;26.70;99.90
54930;DHT22;40833;53.238;6.576;2023-06-22T13:31:20;26.60;99.90
54930;DHT22;40833;53.238;6.576;2023-06-22T13:36:13;23.60;99.90
54930;DHT22;40833;53.238;6.576;2023-06-22T13:38:39;26.50;99.90
54930;DHT22;40833;53.238;6.576;2023-06-22T13:41:05;26.50;99.90
54930;DHT22;40833;53.238;6.576;2023-06-22T13:43:31;26.50;99.90
54930;DHT22;40833;53.238;6.576;2023-06-22T13:45:57;26.60;99.90
54930;DHT22;40833;53.238;6.576;2023-06-22T13:48:23;26.50;99.90
54930;DHT22;40833;53.238;6.576;2023-06-22T13:50:51;26.70;99.90
54930;DHT22;40833;53.238;6.576;2023-06-22T13:53:17;26.40;99.90
54930;DHT22;40833;53.238;6.576;2023-06-22T13:55:43;26.40;99.90
54930;DHT22;40833;53.238;6.576;2023-06-22T13:58:08;26.30;99.90
54930;DHT22;40833;53.238;6.576;2023-06-22T14:00:34;26.30;99.90
54930;DHT22;40833;53.238;6.576;2023-06-22T14:03:00;26.30;99.90
54930;DHT22;40833;53.238;6.576;2023-06-22T14:05:25;26.30;99.90
54930;DHT22;40833;53.238;6.576;2023-06-22T14:07:51;26.20;99.90
54930;DHT22;40833;53.238;6.576;2023-06-22T14:10:17;26.10;99.90
54930;DHT22;40833;53.238;6.576;2023-06-22T14:12:43;26.80;99.90
54930;DHT22;40833;53.238;6.576;2023-06-22T14:15:09;25.90;99.90
54930;DHT22;40833;53.238;6.576;2023-06-22T14:17:34;25.90;99.90
54930;DHT22;40833;53.238;6.576;2023-06-22T14:20:00;25.90;99.90
54930;DHT22;40833;53.238;6.576;2023-06-22T14:22:26;25.80;99.90
54930;DHT22;40833;53.238;6.576;2023-06-22T14:27:29;25.20;99.90
54930;DHT22;40833;53.238;6.576;2023-06-22T14:29:55;25.30;99.90
54930;DHT22;40833;53.238;6.576;2023-06-22T14:32:20;25.30;99.90
54930;DHT22;40833;53.238;6.576;2023-06-22T14:34:46;25.30;99.90
54930;DHT22;40833;53.238;6.576;2023-06-22T14:37:12;25.30;99.90
54930;DHT22;40833;53.238;6.576;2023-06-22T14:39:40;25.30;99.90
54930;DHT22;40833;53.238;6.576;2023-06-22T14:42:06;25.30;99.90
54930;DHT22;40833;53.238;6.576;2023-06-22T14:44:32;25.30;99.90
54930;DHT22;40833;53.238;6.576;2023-06-22T14:46:57;25.30;99.90
54930;DHT22;40833;53.238;6.576;2023-06-22T14:49:23;25.30;99.90
54930;DHT22;40833;53.238;6.576;2023-06-22T14:51:49;25.30;99.90
54930;DHT22;40833;53.238;6.576;2023-06-22T14:54:15;25.30;99.90
54930;DHT22;40833;53.238;6.576;2023-06-22T14:56:40;25.30;99.90
54930;DHT22;40833;53.238;6.576;2023-06-22T14:59:06;25.20;99.90
54930;DHT22;40833;53.238;6.576;2023-06-22T15:01:32;25.20;99.90
54930;DHT22;40833;53.238;6.576;2023-06-22T15:03:57;25.20;99.90
54930;DHT22;40833;53.238;6.576;2023-06-22T15:06:23;25.10;99.90
54930;DHT22;40833;53.238;6.576;2023-06-22T15:08:49;25.20;99.90
54930;DHT22;40833;53.238;6.576;2023-06-22T15:11:14;25.20;99.90
54930;DHT22;40833;53.238;6.576;2023-06-22T15:13:41;25.20;99.90
54930;DHT22;40833;53.238;6.576;2023-06-22T15:16:07;25.20;99.90
54930;DHT22;40833;53.238;6.576;2023-06-22T15:18:34;25.10;99.90
54930;DHT22;40833;53.238;6.576;2023-06-22T15:21:01;25.10;99.90
54930;DHT22;40833;53.238;6.576;2023-06-22T15:23:28;25.10;99.90
54930;DHT22;40833;53.238;6.576;2023-06-22T15:25:55;25.10;99.90
54930;DHT22;40833;53.238;6.576;2023-06-22T15:28:21;25.00;99.90
54930;DHT22;40833;53.238;6.576;2023-06-22T15:30:47;25.00;99.90
54930;DHT22;40833;53.238;6.576;2023-06-22T15:33:14;24.90;99.90
54930;DHT22;40833;53.238;6.576;2023-06-22T15:35:39;24.80;99.90
54930;DHT22;40833;53.238;6.576;2023-06-22T15:38:05;24.70;99.90
54930;DHT22;40833;53.238;6.576;2023-06-22T15:40:31;24.60;99.90
54930;DHT22;40833;53.238;6.576;2023-06-22T15:42:56;24.40;99.90
54930;DHT22;40833;53.238;6.576;2023-06-22T15:45:22;24.40;99.90
54930;DHT22;40833;53.238;6.576;2023-06-22T15:53:24;24.30;99.90
54930;DHT22;40833;53.238;6.576;2023-06-22T15:55:50;24.20;99.90
54930;DHT22;40833;53.238;6.576;2023-06-22T16:00:44;24.00;99.90
54930;DHT22;40833;53.238;6.576;2023-06-22T16:08:02;23.90;99.90
54930;DHT22;40833;53.238;6.576;2023-06-22T16:17:46;23.80;99.90
54930;DHT22;40833;53.238;6.576;2023-06-22T16:20:12;23.70;99.90
54930;DHT22;40833;53.238;6.576;2023-06-22T16:22:38;23.70;99.90
54930;DHT22;40833;53.238;6.576;2023-06-22T16:25:04;23.70;99.90
54930;DHT22;40833;53.238;6.576;2023-06-22T16:27:30;23.60;99.90
54930;DHT22;40833;53.238;6.576;2023-06-22T16:29:57;23.70;99.90
54930;DHT22;40833;53.238;6.576;2023-06-22T16:32:23;23.60;99.90
54930;DHT22;40833;53.238;6.576;2023-06-22T16:34:49;23.60;99.90
54930;DHT22;40833;53.238;6.576;2023-06-22T16:37:14;23.40;99.90
54930;DHT22;40833;53.238;6.576;2023-06-22T16:39:40;23.40;99.90
54930;DHT22;40833;53.238;6.576;2023-06-22T16:42:06;23.30;99.90
54930;DHT22;40833;53.238;6.576;2023-06-22T16:44:31;23.30;99.90
54930;DHT22;40833;53.238;6.576;2023-06-22T16:46:58;23.10;99.90
54930;DHT22;40833;53.238;6.576;2023-06-22T16:49:24;23.10;99.90
54930;DHT22;40833;53.238;6.576;2023-06-22T16:51:50;22.70;99.90
54930;DHT22;40833;53.238;6.576;2023-06-22T16:54:16;22.90;99.90
54930;DHT22;40833;53.238;6.576;2023-06-22T17:01:34;22.70;99.90
54930;DHT22;40833;53.238;6.576;2023-06-22T17:04:10;22.70;99.90
54930;DHT22;40833;53.238;6.576;2023-06-22T17:06:42;22.50;99.90
54930;DHT22;40833;53.238;6.576;2023-06-22T17:09:11;22.70;99.90
54930;DHT22;40833;53.238;6.576;2023-06-22T17:11:38;22.60;99.90
54930;DHT22;40833;53.238;6.576;2023-06-22T17:14:06;22.60;99.90
54930;DHT22;40833;53.238;6.576;2023-06-22T17:16:32;22.50;99.90
54930;DHT22;40833;53.238;6.576;2023-06-22T17:18:59;22.50;99.90
54930;DHT22;40833;53.238;6.576;2023-06-22T17:24:00;22.30;99.90
54930;DHT22;40833;53.238;6.576;2023-06-22T17:28:55;22.40;99.90
54930;DHT22;40833;53.238;6.576;2023-06-22T17:31:39;22.40;99.90
54930;DHT22;40833;53.238;6.576;2023-06-22T17:34:15;22.40;99.90
54930;DHT22;40833;53.238;6.576;2023-06-22T17:36:48;22.40;99.90
54930;DHT22;40833;53.238;6.576;2023-06-22T17:39:18;22.20;99.90
54930;DHT22;40833;53.238;6.576;2023-06-22T17:41:46;22.20;99.90
54930;DHT22;40833;53.238;6.576;2023-06-22T17:44:13;22.30;99.90
54930;DHT22;40833;53.238;6.576;2023-06-22T17:46:43;22.20;99.90
54930;DHT22;40833;53.238;6.576;2023-06-22T17:49:09;22.10;99.90
54930;DHT22;40833;53.238;6.576;2023-06-22T17:51:39;22.00;99.90
54930;DHT22;40833;53.238;6.576;2023-06-22T17:54:05;21.90;99.90
54930;DHT22;40833;53.238;6.576;2023-06-22T17:56:32;21.80;99.90
54930;DHT22;40833;53.238;6.576;2023-06-22T17:58:58;21.80;99.90
54930;DHT22;40833;53.238;6.576;2023-06-22T18:01:37;21.80;99.90
54930;DHT22;40833;53.238;6.576;2023-06-22T18:04:14;22.00;99.90
54930;DHT22;40833;53.238;6.576;2023-06-22T18:06:43;21.60;99.90
54930;DHT22;40833;53.238;6.576;2023-06-22T18:09:11;21.60;99.90
54930;DHT22;40833;53.238;6.576;2023-06-22T18:11:44;21.80;99.90
54930;DHT22;40833;53.238;6.576;2023-06-22T18:16:36;21.40;99.90
54930;DHT22;40833;53.238;6.576;2023-06-22T18:19:03;21.50;99.90
54930;DHT22;40833;53.238;6.576;2023-06-22T18:21:29;21.50;99.90
54930;DHT22;40833;53.238;6.576;2023-06-22T18:23:55;21.40;99.90
54930;DHT22;40833;53.238;6.576;2023-06-22T18:26:25;21.40;99.90
54930;DHT22;40833;53.238;6.576;2023-06-22T18:28:53;21.60;99.90
54930;DHT22;40833;53.238;6.576;2023-06-22T18:31:20;21.40;99.90
54930;DHT22;40833;53.238;6.576;2023-06-22T18:33:52;21.30;99.90
54930;DHT22;40833;53.238;6.576;2023-06-22T18:36:43;21.30;99.90
54930;DHT22;40833;53.238;6.576;2023-06-22T18:39:11;21.50;99.90
54930;DHT22;40833;53.238;6.576;2023-06-22T18:41:39;21.20;99.90
54930;DHT22;40833;53.238;6.576;2023-06-22T18:44:11;21.20;99.90
54930;DHT22;40833;53.238;6.576;2023-06-22T18:46:38;21.20;99.90
54930;DHT22;40833;53.238;6.576;2023-06-22T18:49:11;21.10;99.90
54930;DHT22;40833;53.238;6.576;2023-06-22T18:51:52;21.10;99.90
54930;DHT22;40833;53.238;6.576;2023-06-22T18:57:27;21.10;99.90
54930;DHT22;40833;53.238;6.576;2023-06-22T19:05:18;21.00;99.90
54930;DHT22;40833;53.238;6.576;2023-06-22T19:13:25;20.80;99.90
54930;DHT22;40833;53.238;6.576;2023-06-22T19:16:02;20.80;99.90
54930;DHT22;40833;53.238;6.576;2023-06-22T19:18:33;20.70;99.90
54930;DHT22;40833;53.238;6.576;2023-06-22T19:21:00;20.70;99.90
54930;DHT22;40833;53.238;6.576;2023-06-22T19:23:32;20.50;99.90
54930;DHT22;40833;53.238;6.576;2023-06-22T19:31:01;20.40;99.90
54930;DHT22;40833;53.238;6.576;2023-06-22T19:33:28;20.40;99.90
54930;DHT22;40833;53.238;6.576;2023-06-22T19:36:00;20.90;99.90
54930;DHT22;40833;53.238;6.576;2023-06-22T19:38:28;20.40;99.90
54930;DHT22;40833;53.238;6.576;2023-06-22T19:40:56;20.30;99.90
54930;DHT22;40833;53.238;6.576;2023-06-22T19:43:27;20.20;99.90
54930;DHT22;40833;53.238;6.576;2023-06-22T19:45:53;20.20;99.90
54930;DHT22;40833;53.238;6.576;2023-06-22T19:50:45;20.20;99.90
54930;DHT22;40833;53.238;6.576;2023-06-22T19:53:12;20.20;99.90
54930;DHT22;40833;53.238;6.576;2023-06-22T19:55:46;20.20;99.90
54930;DHT22;40833;53.238;6.576;2023-06-22T19:58:16;20.20;99.90
54930;DHT22;40833;53.238;6.576;2023-06-22T20:00:43;20.00;99.90
54930;DHT22;40833;53.238;6.576;2023-06-22T20:03:16;19.90;99.90
54930;DHT22;40833;53.238;6.576;2023-06-22T20:05:43;20.10;99.90
54930;DHT22;40833;53.238;6.576;2023-06-22T20:08:14;20.20;99.90